Have a Safe July 4th! 

Flight Track Log - Related Links

Times and Time Zones

All times are in EDT time to prevent confusion due to time zone crossing. See the FLG4333 flight status page for this flight to view local times or setup timezone preferences in your user account.

Time Position Orientation Groundspeed Altitude Reporting Facility
EDT Latitude Longitude Course Direction KTS MPH feet Rate Location/Type
Sun 05:45:12 PM 42.1972 -83.3608 56° Northeast 170 196 1,300  Level Cleveland Center
Sun 05:45:42 PM 42.1725 -83.3569 173° South 188 216 2,200 1,957 Climbing Cleveland Center
Sun 05:46:44 PM 42.1139 -83.3572 180° South 238 274 4,300 2,017 Climbing Cleveland Center
Sun 05:47:38 PM 42.0781 -83.2942 127° Southeast 271 312 6,100 2,139 Climbing Cleveland Center
Sun 05:48:39 PM 42.0928 -83.1911 79° East 291 335 8,400 2,031 Climbing Cleveland Center
Sun 05:49:00 PM 42.3309 -82.6080 82° East  Level FlightAware Approximate
Sun 05:49:45 PM 42.1283 -83.0917 64° Northeast 317 365 10,400  Level Cleveland Center
Sun 05:50:00 PM 42.3601 -82.4632 56° Northeast  Level FlightAware Approximate
Sun 05:50:45 PM 42.1706 -82.9814 63° Northeast 322 371 11,400  Level Cleveland Center
Sun 05:51:45 PM 42.2167 -82.8625 62° Northeast 334 384 13,000 1,650 Climbing Cleveland Center
Sun 05:52:45 PM 42.2608 -82.7378 64° Northeast 346 398 14,700 1,450 Climbing Cleveland Center
Sun 05:53:45 PM 42.3067 -82.6131 64° Northeast 357 411 15,900 1,150 Climbing Cleveland Center
Sun 05:54:45 PM 42.3569 -82.4825 62° Northeast 369 425 17,000 1,150 Climbing Cleveland Center
Sun 05:55:45 PM 42.3614 -82.3339 88° East 383 441 18,200 1,200 Climbing Cleveland Center
Sun 05:56:45 PM 42.3575 -82.1792 92° East 388 447 19,400 1,200 Climbing Cleveland Center
Sun 05:57:45 PM 42.3492 -82.0075 94° East 407 468 20,600 1,000 Climbing Cleveland Center
Sun 05:58:45 PM 42.3428 -81.8500 93° East 416 479 21,400 800 Climbing Cleveland Center
Sun 05:59:45 PM 42.3361 -81.6928 93° East 426 490 22,200 850 Climbing Cleveland Center
Sun 06:00:45 PM 42.3292 -81.5269 93° East 426 490 23,100 850 Climbing Cleveland Center
Sun 06:01:45 PM 42.3200 -81.3611 94° East 426 490 23,900 750 Climbing Cleveland Center
Sun 06:02:45 PM 42.3125 -81.2178 94° East 426 490 24,600 750 Climbing Cleveland Center
Sun 06:03:45 PM 42.3050 -81.0519 93° East 431 496 25,400 750 Climbing Cleveland Center
Sun 06:04:45 PM 42.2972 -80.8864 94° East 437 503 26,100 700 Climbing Cleveland Center
Sun 06:05:45 PM 42.2872 -80.7150 94° East 450 518 26,800 700 Climbing Cleveland Center
Sun 06:06:45 PM 42.2789 -80.5467 94° East 450 518 27,500 700 Climbing Cleveland Center
Sun 06:07:45 PM 42.2661 -80.3644 95° East 445 512 28,200 700 Climbing Cleveland Center
Sun 06:08:45 PM 42.2575 -80.1961 94° East 445 512 28,900 400 Climbing Cleveland Center
Sun 06:09:45 PM 42.2464 -80.0278 95° East 446 513 29,000 50 Climbing Cleveland Center
Sun 06:10:45 PM 42.2372 -79.8736 95° East 453 521 29,000  Level Cleveland Center
Sun 06:11:45 PM 42.2694 -79.7106 75° East 441 507 29,000  Level Cleveland Center
Sun 06:12:45 PM 42.3264 -79.5525 64° Northeast 454 522 29,000  Level Cleveland Center
Sun 06:13:45 PM 42.3853 -79.3969 63° Northeast 454 522 29,000  Level Cleveland Center
Sun 06:14:45 PM 42.4442 -79.2383 63° Northeast 459 528 29,000  Level Cleveland Center
Sun 06:15:45 PM 42.5128 -79.0678 61° Northeast 465 535 29,000  Level Cleveland Center
Sun 06:16:45 PM 42.5711 -78.9086 63° Northeast 465 535 29,000  Level Cleveland Center
Sun 06:17:45 PM 42.6292 -78.7489 64° Northeast 465 535 29,000  Level Cleveland Center
Sun 06:18:45 PM 42.6869 -78.5861 64° Northeast 470 541 29,000  Level Cleveland Center
Sun 06:19:45 PM 42.7444 -78.4233 64° Northeast 470 541 29,000  Level Cleveland Center
Sun 06:20:45 PM 42.8017 -78.2656 64° Northeast 470 541 29,000  Level Cleveland Center
Sun 06:21:45 PM 42.8608 -78.1019 64° Northeast 470 541 29,000  Level Cleveland Center
Sun 06:22:45 PM 42.9097 -77.9553 65° Northeast 470 541 29,000  Level Cleveland Center
Sun 06:23:45 PM 42.9686 -77.7942 63° Northeast 470 541 29,000  Level Cleveland Center
Sun 06:24:45 PM 43.0250 -77.6325 64° Northeast 470 541 29,000  Level Cleveland Center
Sun 06:25:45 PM 43.0811 -77.4706 65° Northeast 470 541 29,000  Level Cleveland Center
Sun 06:28:05 PM 43.2144 -77.0903 64° Northeast 459 528 29,000  Level Boston Center
Sun 06:29:05 PM 43.2686 -76.9289 65° Northeast 464 534 29,000  Level Boston Center
Sun 06:30:05 PM 43.3275 -76.7564 65° Northeast 464 534 29,000  Level Boston Center
Sun 06:31:05 PM 43.3858 -76.5917 64° Northeast 464 534 29,000  Level Boston Center
Sun 06:32:05 PM 43.4417 -76.4297 65° Northeast 464 534 29,000 -400 Level Boston Center
Sun 06:33:05 PM 43.4972 -76.2644 65° Northeast 469 540 28,200 -700 Descending Boston Center
Sun 06:34:05 PM 43.5506 -76.1044 65° Northeast 470 541 27,600 -1,200 Descending Boston Center
Sun 06:35:05 PM 43.6036 -75.9383 66° East 470 541 25,800 -1,750 Descending Boston Center
Sun 06:36:05 PM 43.6583 -75.7781 65° Northeast 470 541 24,100 -1,450 Descending Boston Center
Sun 06:37:05 PM 43.7067 -75.6256 66° East 453 521 22,900 -1,100 Descending Boston Center
Sun 06:38:05 PM 43.7544 -75.4700 67° East 441 507 21,900 -1,000 Descending Boston Center
Sun 06:39:05 PM 43.8042 -75.3228 65° Northeast 429 494 20,900 -1,000 Descending Boston Center
Sun 06:40:05 PM 43.8517 -75.1694 67° East 429 494 19,900 -1,050 Descending Boston Center
Sun 06:41:05 PM 43.9011 -75.0192 65° Northeast 429 494 18,800 -950 Descending Boston Center
Sun 06:42:05 PM 43.9481 -74.8711 66° East 429 494 18,000 -400 Descending Boston Center
Sun 06:43:05 PM 43.9928 -74.7200 68° East 429 494 18,000  Level Boston Center
Sun 06:44:05 PM 44.0394 -74.5772 66° East 416 479 18,000  Level Boston Center
Sun 06:45:05 PM 44.0836 -74.4286 67° East 416 479 18,000 -400 Level Boston Center
Sun 06:46:05 PM 44.1297 -74.2856 66° East 416 479 17,200 -1,450 Descending Boston Center
Sun 06:47:05 PM 44.1694 -74.1450 68° East 410 472 15,100 -1,800 Descending Boston Center
Sun 06:48:05 PM 44.2086 -74.0272 65° Northeast 395 455 13,600 -1,650 Descending Boston Center
Sun 06:49:05 PM 44.2481 -73.8950 67° East 372 428 11,800 -1,350 Descending Boston Center
Sun 06:50:05 PM 44.2914 -73.7511 67° East 367 422 10,900 -1,000 Descending Boston Center
Sun 06:51:05 PM 44.3281 -73.6358 66° East 342 394 9,800 -1,300 Descending Boston Center
Sun 06:52:05 PM 44.3603 -73.5231 68° East 314 361 8,300 -1,700 Descending Boston Center
Sun 06:53:05 PM 44.4256 -73.4544 37° Northeast 291 335 6,400 -1,650 Descending Boston Center
Sun 06:54:05 PM 44.4864 -73.4061 30° Northeast 281 323 5,000 -1,650 Descending Boston Center
Sun 06:55:05 PM 44.5556 -73.3489 31° Northeast 264 304 3,100 -1,350 Descending Boston Center
Sun 06:56:05 PM 44.5500 -73.2819 97° East 171 197 2,300 -700 Descending Boston Center
Sun 06:57:05 PM 44.5231 -73.2378 131° Southeast 139 160 1,700 -600 Descending Boston Center

Login

Don't have an account? Register now (free) for customized features, flight alerts, and more!